createdAt,value
2023-01-13T00:01:23.784Z,1.50
2023-01-13T00:03:52.521Z,1.30
2023-01-13T00:06:23.127Z,1.27
2023-01-13T00:08:52.718Z,1.87
2023-01-13T00:11:22.402Z,2.53
2023-01-13T00:13:50.821Z,1.60
2023-01-13T00:16:21.016Z,1.83
2023-01-13T00:18:52.325Z,2.43
2023-01-13T00:21:23.132Z,2.20
2023-01-13T00:23:54.102Z,2.03
2023-01-13T00:26:24.384Z,2.47
2023-01-13T00:28:59.062Z,2.00
2023-01-13T00:31:28.757Z,2.20
2023-01-13T00:33:59.876Z,2.23
2023-01-13T00:36:29.280Z,1.80
2023-01-13T00:38:58.306Z,2.03
2023-01-13T00:41:27.873Z,1.93
2023-01-13T00:43:55.387Z,2.60
2023-01-13T00:46:24.092Z,3.07
2023-01-13T00:48:53.015Z,2.50
2023-01-13T00:51:23.423Z,2.20
2023-01-13T00:53:53.285Z,2.90
2023-01-13T00:56:40.829Z,2.00
2023-01-13T00:59:11.215Z,2.77
2023-01-13T01:01:39.956Z,2.63
2023-01-13T01:04:08.795Z,3.60
2023-01-13T01:06:38.626Z,2.13
2023-01-13T01:09:07.565Z,3.47
2023-01-13T01:11:38.245Z,2.50
2023-01-13T01:14:07.025Z,3.17
2023-01-13T01:16:35.638Z,3.77
2023-01-13T01:19:05.228Z,3.30
2023-01-13T01:21:34.805Z,3.20
2023-01-13T01:24:08.610Z,2.60
2023-01-13T01:26:37.548Z,2.73
2023-01-13T01:29:05.926Z,3.00
2023-01-13T01:31:35.019Z,3.20
2023-01-13T01:34:03.483Z,3.43
2023-01-13T01:36:32.082Z,2.80
2023-01-13T01:39:01.298Z,2.57
2023-01-13T01:41:33.151Z,2.77
2023-01-13T01:44:03.136Z,3.40
2023-01-13T01:46:34.751Z,3.80
2023-01-13T01:49:15.504Z,4.77
2023-01-13T01:51:47.485Z,3.47
2023-01-13T01:54:21.920Z,3.47
2023-01-13T01:56:52.173Z,3.70
2023-01-13T01:59:20.794Z,3.07
2023-01-13T02:01:49.808Z,3.40
2023-01-13T02:04:24.008Z,3.77
2023-01-13T02:06:54.479Z,3.53
2023-01-13T02:09:22.889Z,3.03
2023-01-13T02:12:10.263Z,3.63
2023-01-13T02:14:40.271Z,2.90
2023-01-13T02:17:20.725Z,3.60
2023-01-13T02:20:27.186Z,4.93
2023-01-13T02:23:55.074Z,2.90
2023-01-13T02:26:59.960Z,3.80
2023-01-13T02:30:08.786Z,5.20
2023-01-13T02:32:45.711Z,4.43
2023-01-13T02:35:21.263Z,3.93
2023-01-13T02:37:51.586Z,4.30
2023-01-13T02:40:25.610Z,4.20
2023-01-13T02:43:20.586Z,3.67
2023-01-13T02:45:57.205Z,3.60
2023-01-13T02:48:29.881Z,5.43
2023-01-13T02:51:03.547Z,4.63
2023-01-13T02:53:36.177Z,4.00
2023-01-13T02:56:07.895Z,4.50
2023-01-13T02:58:40.410Z,4.80
2023-01-13T03:01:10.512Z,3.73
2023-01-13T03:03:39.610Z,4.40
2023-01-13T03:06:26.560Z,4.27
2023-01-13T03:09:04.573Z,5.50
2023-01-13T03:11:40.656Z,4.47
2023-01-13T03:14:19.805Z,4.37
2023-01-13T03:17:08.297Z,4.27
2023-01-13T03:19:44.040Z,4.30
2023-01-13T03:22:28.453Z,4.63
2023-01-13T03:25:02.309Z,4.70
2023-01-13T03:27:34.448Z,4.60
2023-01-13T03:30:08.515Z,4.00
2023-01-13T03:32:41.915Z,3.37
2023-01-13T03:35:16.945Z,2.37
2023-01-13T03:37:49.157Z,2.43
2023-01-13T03:40:22.654Z,2.70
2023-01-13T03:43:14.516Z,2.83
2023-01-13T03:45:45.613Z,2.67
2023-01-13T03:48:20.651Z,2.23
2023-01-13T03:50:51.594Z,2.57
2023-01-13T03:53:24.453Z,3.27
2023-01-13T03:55:57.029Z,2.43
2023-01-13T03:58:31.209Z,2.63
2023-01-13T04:01:02.938Z,2.70
2023-01-13T04:03:41.402Z,2.37
2023-01-13T04:06:15.894Z,2.67
2023-01-13T04:08:52.921Z,2.77
2023-01-13T04:11:29.719Z,3.33
2023-01-13T04:14:00.748Z,2.43
2023-01-13T04:16:29.497Z,3.07
2023-01-13T04:18:59.593Z,2.67
2023-01-13T04:21:28.310Z,2.93
2023-01-13T04:23:56.833Z,2.13
2023-01-13T04:26:25.375Z,3.97
2023-01-13T04:28:54.833Z,4.13
2023-01-13T04:31:23.574Z,2.87
2023-01-13T04:33:52.349Z,2.90
2023-01-13T04:36:25.341Z,3.00
2023-01-13T04:38:53.947Z,3.00
2023-01-13T04:41:22.518Z,3.00
2023-01-13T04:43:52.054Z,3.67
2023-01-13T04:46:20.766Z,3.00
2023-01-13T04:48:49.270Z,3.40
2023-01-13T04:51:18.587Z,3.30
2023-01-13T04:53:48.410Z,2.60
2023-01-13T04:56:18.447Z,3.23
2023-01-13T04:58:47.400Z,3.10
2023-01-13T05:01:16.080Z,2.83
2023-01-13T05:03:44.685Z,2.70
2023-01-13T05:06:13.546Z,2.57
2023-01-13T05:08:42.391Z,3.20
2023-01-13T05:11:26.219Z,3.83
2023-01-13T05:14:12.400Z,2.83
2023-01-13T05:16:58.800Z,3.13
2023-01-13T05:19:27.374Z,2.67
2023-01-13T05:22:13.545Z,3.07
2023-01-13T05:24:59.754Z,3.10
2023-01-13T05:27:32.047Z,2.80
2023-01-13T05:30:00.630Z,3.43
2023-01-13T05:32:29.583Z,3.20
2023-01-13T05:34:58.264Z,3.23
2023-01-13T05:37:28.034Z,2.93
2023-01-13T05:40:14.354Z,3.00
2023-01-13T05:43:02.193Z,3.43
2023-01-13T05:45:32.332Z,2.87
2023-01-13T05:48:00.853Z,3.17
2023-01-13T05:50:29.357Z,2.70
2023-01-13T05:52:57.838Z,3.13
2023-01-13T05:55:26.493Z,2.77
2023-01-13T05:57:56.474Z,2.77
2023-01-13T06:00:25.292Z,2.73
2023-01-13T06:02:53.963Z,2.77
2023-01-13T06:05:22.703Z,2.63
2023-01-13T06:07:51.231Z,3.43
2023-01-13T06:10:19.781Z,2.80
2023-01-13T06:12:48.427Z,2.70
2023-01-13T06:15:18.588Z,2.60
2023-01-13T06:17:47.094Z,2.80
2023-01-13T06:20:19.068Z,2.57
2023-01-13T06:22:50.278Z,2.83
2023-01-13T06:25:26.008Z,2.50
2023-01-13T06:27:57.015Z,2.20
2023-01-13T06:30:29.244Z,2.70
2023-01-13T06:33:03.154Z,3.27
2023-01-13T06:35:35.679Z,2.93
2023-01-13T06:38:10.166Z,3.33
2023-01-13T06:40:39.058Z,3.10
2023-01-13T06:43:16.609Z,2.47
2023-01-13T06:45:51.838Z,3.10
2023-01-13T06:48:23.654Z,2.97
2023-01-13T06:50:52.211Z,3.53
2023-01-13T06:53:20.978Z,2.67
2023-01-13T06:55:49.627Z,3.90
2023-01-13T06:58:18.647Z,2.83
2023-01-13T07:00:51.671Z,3.60
2023-01-13T07:03:21.596Z,3.40
2023-01-13T07:05:54.601Z,2.77
2023-01-13T07:08:24.058Z,3.57
2023-01-13T07:10:53.080Z,2.93
2023-01-13T07:13:39.566Z,2.70
2023-01-13T07:16:11.063Z,2.90
2023-01-13T07:18:39.855Z,3.03
2023-01-13T07:21:10.549Z,3.73
2023-01-13T07:23:40.751Z,3.53
2023-01-13T07:26:13.465Z,3.13
2023-01-13T07:28:42.838Z,2.80
2023-01-13T07:31:18.483Z,2.63
2023-01-13T07:33:48.395Z,3.47
2023-01-13T07:36:19.853Z,3.97
2023-01-13T07:38:48.505Z,3.30
2023-01-13T07:41:34.613Z,3.57
2023-01-13T07:44:06.274Z,3.20
2023-01-13T07:46:35.993Z,3.40
2023-01-13T07:49:04.596Z,3.27
2023-01-13T07:51:33.461Z,3.70
2023-01-13T07:54:02.377Z,4.03
2023-01-13T07:56:31.403Z,4.03
2023-01-13T07:59:01.137Z,3.13
2023-01-13T08:01:36.666Z,3.90
2023-01-13T08:04:07.580Z,4.00
2023-01-13T08:06:37.122Z,3.70
2023-01-13T08:09:05.693Z,3.13
2023-01-13T08:11:34.454Z,3.43
2023-01-13T08:14:03.759Z,4.03
2023-01-13T08:16:34.586Z,4.47
2023-01-13T08:19:03.327Z,3.60
2023-01-13T08:21:33.446Z,3.27
2023-01-13T08:24:01.984Z,3.53
2023-01-13T08:26:30.591Z,5.03
2023-01-13T08:28:59.221Z,3.93
2023-01-13T08:31:28.016Z,4.07
2023-01-13T08:33:56.706Z,3.67
2023-01-13T08:36:25.905Z,4.43
2023-01-13T08:38:56.004Z,4.00
2023-01-13T08:41:41.039Z,3.97
2023-01-13T08:44:10.383Z,4.43
2023-01-13T08:46:39.204Z,3.60
2023-01-13T08:49:08.090Z,3.30
2023-01-13T08:51:36.568Z,3.70
2023-01-13T08:54:11.842Z,3.70
2023-01-13T08:56:42.096Z,3.90
2023-01-13T08:59:13.344Z,4.37
2023-01-13T09:01:42.710Z,3.63
2023-01-13T09:04:18.083Z,4.37
2023-01-13T09:06:46.796Z,5.33
2023-01-13T09:09:19.875Z,3.40
2023-01-13T09:12:08.815Z,3.73
2023-01-13T09:14:43.367Z,4.13
2023-01-13T09:17:12.181Z,5.73
2023-01-13T09:19:41.051Z,3.70
2023-01-13T09:22:15.876Z,4.00
2023-01-13T09:24:46.277Z,3.73
2023-01-13T09:27:16.508Z,5.27
2023-01-13T09:29:45.268Z,4.47
2023-01-13T09:32:15.475Z,3.70
2023-01-13T09:35:01.388Z,4.33
2023-01-13T09:37:31.266Z,4.23
2023-01-13T09:40:01.489Z,5.13
2023-01-13T09:42:56.456Z,3.90
2023-01-13T09:45:29.715Z,4.37
2023-01-13T09:48:06.077Z,6.63
2023-01-13T09:50:53.599Z,4.73
2023-01-13T09:53:28.206Z,4.60
2023-01-13T09:55:58.897Z,4.40
2023-01-13T09:58:28.646Z,4.93
2023-01-13T10:01:22.543Z,4.93
2023-01-13T10:03:51.499Z,4.33
2023-01-13T10:06:31.177Z,5.20
2023-01-13T10:09:00.431Z,4.53
2023-01-13T10:11:52.405Z,4.97
2023-01-13T10:14:27.845Z,4.27
2023-01-13T10:17:12.704Z,5.10
2023-01-13T10:19:49.007Z,5.07
2023-01-13T10:22:27.310Z,5.33
2023-01-13T10:25:22.405Z,6.10
2023-01-13T10:27:54.797Z,4.43
2023-01-13T10:30:31.236Z,4.13
2023-01-13T10:33:02.219Z,4.10
2023-01-13T10:36:05.704Z,3.80
2023-01-13T10:38:40.068Z,4.37
2023-01-13T10:41:19.822Z,4.20
2023-01-13T10:44:00.998Z,5.23
2023-01-13T10:46:31.371Z,5.17
2023-01-13T10:49:01.826Z,4.33
2023-01-13T10:51:32.246Z,4.97
2023-01-13T10:54:03.651Z,6.10
2023-01-13T10:56:34.581Z,3.97
2023-01-13T10:59:24.739Z,4.30
2023-01-13T11:02:03.932Z,5.03
2023-01-13T11:04:37.604Z,4.57
2023-01-13T11:07:18.935Z,4.67
2023-01-13T11:09:48.040Z,4.97
2023-01-13T11:12:33.874Z,4.37
2023-01-13T11:15:08.846Z,4.53
2023-01-13T11:17:45.600Z,4.97
2023-01-13T11:20:20.911Z,5.50
2023-01-13T11:22:53.156Z,5.50
2023-01-13T11:25:25.382Z,5.23
2023-01-13T11:31:56.884Z,4.17
2023-01-13T11:35:20.174Z,4.10
2023-01-13T11:43:00.732Z,4.10
2023-01-13T11:45:20.025Z,5.07
2023-01-13T11:47:53.741Z,3.87
2023-01-13T11:50:33.979Z,3.87
2023-01-13T11:53:29.043Z,3.67
2023-01-13T11:56:11.737Z,4.67
2023-01-13T11:59:12.622Z,3.77
2023-01-13T12:01:58.596Z,4.07
2023-01-13T12:04:37.201Z,4.10
2023-01-13T12:07:15.618Z,4.50
2023-01-13T12:09:57.611Z,4.97
2023-01-13T12:12:37.960Z,5.07
2023-01-13T12:15:33.004Z,4.93
2023-01-13T12:18:29.339Z,4.73
2023-01-13T12:21:12.595Z,4.27
2023-01-13T12:23:48.370Z,4.97
2023-01-13T12:26:18.597Z,4.73
2023-01-13T12:28:53.668Z,4.67
2023-01-13T12:31:23.341Z,4.00
2023-01-13T12:34:09.373Z,5.20
2023-01-13T12:36:53.052Z,5.43
2023-01-13T12:39:31.289Z,4.20
2023-01-13T12:42:24.889Z,4.67
2023-01-13T12:45:24.235Z,5.13
2023-01-13T12:47:52.960Z,5.23
2023-01-13T12:50:44.222Z,4.33
2023-01-13T12:53:34.470Z,5.53
2023-01-13T12:56:23.346Z,4.57
2023-01-13T12:58:51.929Z,3.73
2023-01-13T13:01:36.968Z,4.30
2023-01-13T13:04:11.537Z,6.83
2023-01-13T13:06:43.380Z,5.23
2023-01-13T13:09:22.796Z,4.37
2023-01-13T13:12:08.788Z,4.93
2023-01-13T13:15:03.920Z,4.37
2023-01-13T13:17:44.436Z,5.50
2023-01-13T13:20:50.795Z,4.03
2023-01-13T13:23:56.271Z,4.57
2023-01-13T13:26:47.404Z,5.33
2023-01-13T13:29:48.616Z,5.63
2023-01-13T13:32:53.383Z,4.50
2023-01-13T13:35:52.235Z,5.73
2023-01-13T13:38:50.683Z,4.77
2023-01-13T13:41:39.659Z,4.37
2023-01-13T13:44:34.583Z,4.73
2023-01-13T13:47:06.469Z,4.20
2023-01-13T13:49:41.391Z,4.00
2023-01-13T13:52:19.195Z,4.80
2023-01-13T13:54:50.823Z,3.97
2023-01-13T13:57:21.496Z,4.77
2023-01-13T13:59:56.221Z,5.80
2023-01-13T14:02:29.671Z,4.80
2023-01-13T14:05:21.600Z,4.10
2023-01-13T14:07:52.532Z,4.67
2023-01-13T14:10:24.950Z,4.70
2023-01-13T14:12:53.809Z,4.20
2023-01-13T14:15:33.421Z,4.30
2023-01-13T14:18:05.202Z,3.73
2023-01-13T14:20:35.833Z,3.63
2023-01-13T14:23:05.926Z,5.57
2023-01-13T14:25:39.591Z,4.40
2023-01-13T14:28:25.895Z,4.00
2023-01-13T14:30:57.625Z,3.60
2023-01-13T14:33:36.196Z,3.87
2023-01-13T14:36:17.085Z,3.80
2023-01-13T14:38:47.855Z,3.60
2023-01-13T14:41:25.179Z,3.50
2023-01-13T14:43:57.440Z,3.53
2023-01-13T14:46:38.442Z,3.23
2023-01-13T14:49:20.458Z,2.67
2023-01-13T14:51:50.922Z,3.33
2023-01-13T14:54:43.347Z,3.60
2023-01-13T14:57:17.465Z,3.03
2023-01-13T14:59:51.912Z,3.17
2023-01-13T15:02:41.595Z,3.47
2023-01-13T15:05:35.953Z,4.13
2023-01-13T15:08:18.662Z,3.83
2023-01-13T15:10:49.955Z,5.53
2023-01-13T15:13:27.868Z,3.93
2023-01-13T15:15:59.099Z,3.73
2023-01-13T15:18:29.138Z,3.60
2023-01-13T15:20:58.032Z,4.00
2023-01-13T15:23:29.022Z,3.80
2023-01-13T15:25:57.382Z,3.60
2023-01-13T15:28:27.777Z,2.97
2023-01-13T15:31:01.819Z,3.70
2023-01-13T15:33:32.219Z,3.70
2023-01-13T15:36:01.967Z,4.00
2023-01-13T15:38:30.597Z,3.67
2023-01-13T15:40:58.970Z,4.80
2023-01-13T15:43:44.534Z,3.93
2023-01-13T15:46:33.792Z,3.87
2023-01-13T15:49:09.939Z,3.40
2023-01-13T15:51:39.053Z,3.60
2023-01-13T15:54:08.085Z,3.67
2023-01-13T15:56:38.315Z,4.30
2023-01-13T15:59:15.762Z,4.23
2023-01-13T16:01:44.519Z,3.37
2023-01-13T16:04:14.466Z,4.87
2023-01-13T16:06:43.737Z,4.77
2023-01-13T16:09:14.375Z,3.93
2023-01-13T16:11:43.079Z,3.83
2023-01-13T16:14:11.565Z,3.93
2023-01-13T16:16:40.935Z,4.50
2023-01-13T16:19:11.973Z,3.83
2023-01-13T16:21:41.839Z,3.97
2023-01-13T16:24:10.233Z,3.23
2023-01-13T16:26:39.146Z,4.03
2023-01-13T16:29:08.144Z,4.03
2023-01-13T16:31:37.300Z,3.70
2023-01-13T16:34:07.198Z,3.53
2023-01-13T16:36:37.922Z,3.73
2023-01-13T16:39:21.701Z,3.17
2023-01-13T16:41:50.160Z,4.00
2023-01-13T16:44:19.153Z,4.10
2023-01-13T16:46:47.913Z,3.70
2023-01-13T16:49:17.733Z,5.03
2023-01-13T16:51:46.307Z,4.93
2023-01-13T16:54:16.198Z,3.70
2023-01-13T16:56:45.447Z,4.30
2023-01-13T16:59:15.349Z,4.10
2023-01-13T17:01:46.039Z,4.07
2023-01-13T17:04:17.213Z,3.80
2023-01-13T17:06:52.568Z,4.47
2023-01-13T17:09:24.082Z,4.13
2023-01-13T17:11:53.453Z,3.50
2023-01-13T17:14:23.588Z,4.17
2023-01-13T17:16:53.955Z,4.90
2023-01-13T17:19:24.622Z,4.43
2023-01-13T17:21:53.196Z,4.53
2023-01-13T17:24:25.770Z,4.77
2023-01-13T17:26:54.252Z,4.50
2023-01-13T17:29:25.887Z,4.60
2023-01-13T17:31:54.906Z,4.07
2023-01-13T17:34:23.588Z,4.40
2023-01-13T17:36:51.996Z,4.60
2023-01-13T17:39:24.464Z,5.53
2023-01-13T17:41:53.867Z,4.87
2023-01-13T17:44:23.830Z,4.70
2023-01-13T17:46:52.357Z,5.37
2023-01-13T17:49:22.142Z,5.13
2023-01-13T17:51:51.638Z,6.33
2023-01-13T17:54:20.645Z,5.00
2023-01-13T17:56:50.756Z,4.40
2023-01-13T17:59:20.794Z,5.33
2023-01-13T18:01:49.468Z,4.67
2023-01-13T18:04:19.258Z,4.63
2023-01-13T18:06:47.893Z,4.97
2023-01-13T18:09:17.039Z,5.80
2023-01-13T18:11:47.240Z,4.20
2023-01-13T18:14:17.845Z,4.87
2023-01-13T18:16:46.333Z,3.80
2023-01-13T18:19:32.742Z,3.80
2023-01-13T18:22:19.099Z,6.07
2023-01-13T18:25:04.709Z,4.33
2023-01-13T18:27:35.206Z,4.27
2023-01-13T18:30:07.386Z,4.13
2023-01-13T18:32:36.563Z,3.97
2023-01-13T18:35:10.144Z,4.23
2023-01-13T18:37:40.434Z,4.50
2023-01-13T18:40:11.584Z,4.57
2023-01-13T18:42:55.117Z,4.17
2023-01-13T18:45:27.069Z,4.17
2023-01-13T18:47:57.296Z,4.10
2023-01-13T18:50:26.474Z,3.43
2023-01-13T18:52:58.176Z,3.90
2023-01-13T18:55:29.460Z,4.40
2023-01-13T18:57:58.998Z,4.33
2023-01-13T19:00:36.460Z,3.57
2023-01-13T19:05:36.095Z,5.57
2023-01-13T19:08:05.623Z,4.57
2023-01-13T19:10:34.613Z,4.00
2023-01-13T19:13:06.262Z,4.30
2023-01-13T19:15:40.242Z,4.50
2023-01-13T19:18:09.962Z,4.43
2023-01-13T19:20:41.717Z,5.13
2023-01-13T19:23:11.904Z,4.53
2023-01-13T19:25:41.211Z,4.50
2023-01-13T19:28:09.772Z,4.73
2023-01-13T19:30:39.818Z,4.50
2023-01-13T19:33:08.493Z,4.27
2023-01-13T19:35:38.400Z,4.50
2023-01-13T19:38:10.050Z,4.17
2023-01-13T19:40:38.710Z,4.30
2023-01-13T19:43:25.677Z,4.10
2023-01-13T19:45:55.977Z,4.10
2023-01-13T19:48:24.497Z,4.60
2023-01-13T19:50:53.292Z,4.60
2023-01-13T19:53:21.980Z,4.40
2023-01-13T19:55:50.541Z,4.10
2023-01-13T19:58:20.395Z,4.63
2023-01-13T20:00:48.934Z,4.23
2023-01-13T20:03:24.356Z,3.87
2023-01-13T20:05:52.896Z,4.33
2023-01-13T20:08:23.299Z,4.37
2023-01-13T20:11:15.257Z,4.60
2023-01-13T20:13:46.965Z,5.07
2023-01-13T20:16:16.090Z,4.67
2023-01-13T20:18:49.600Z,4.43
2023-01-13T20:21:18.585Z,4.20
2023-01-13T20:23:54.512Z,4.63
2023-01-13T20:26:22.965Z,5.20
2023-01-13T20:28:52.900Z,4.63
2023-01-13T20:31:22.147Z,4.67
2023-01-13T20:33:52.177Z,5.07
2023-01-13T20:36:30.648Z,4.50
2023-01-13T20:39:01.436Z,4.37
2023-01-13T20:41:47.643Z,5.57
2023-01-13T20:44:16.955Z,4.47
2023-01-13T20:46:46.172Z,5.83
2023-01-13T20:49:16.824Z,5.30
2023-01-13T20:51:45.298Z,5.57
2023-01-13T20:54:13.765Z,5.00
2023-01-13T20:56:42.441Z,4.33
2023-01-13T20:59:11.545Z,4.17
2023-01-13T21:01:40.409Z,4.40
2023-01-13T21:04:09.424Z,4.57
2023-01-13T21:06:39.400Z,4.33
2023-01-13T21:09:08.011Z,4.60
2023-01-13T21:11:54.437Z,4.40
2023-01-13T21:14:42.813Z,4.70
2023-01-13T21:17:38.754Z,4.90
2023-01-13T21:20:07.964Z,5.70
2023-01-13T21:22:39.035Z,4.80
2023-01-13T21:25:08.609Z,4.97
2023-01-13T21:27:37.544Z,4.87
2023-01-13T21:30:07.495Z,4.73
2023-01-13T21:32:36.150Z,4.73
2023-01-13T21:35:05.645Z,5.23
2023-01-13T21:37:36.708Z,6.10
2023-01-13T21:40:10.284Z,4.83
2023-01-13T21:42:56.565Z,5.17
2023-01-13T21:45:41.762Z,5.50
2023-01-13T21:48:10.471Z,6.33
2023-01-13T21:50:39.660Z,6.17
2023-01-13T21:53:09.248Z,5.57
2023-01-13T21:55:39.225Z,6.40
2023-01-13T21:58:12.693Z,7.20
2023-01-13T22:00:42.854Z,5.13
2023-01-13T22:03:13.169Z,5.23
2023-01-13T22:05:42.105Z,5.90
2023-01-13T22:08:14.357Z,5.63
2023-01-13T22:10:58.578Z,5.43
2023-01-13T22:13:45.213Z,5.23
2023-01-13T22:16:13.942Z,5.47
2023-01-13T22:18:42.597Z,6.23
2023-01-13T22:21:11.213Z,5.23
2023-01-13T22:23:39.818Z,6.00
2023-01-13T22:26:12.111Z,6.60
2023-01-13T22:28:44.256Z,5.87
2023-01-13T22:31:15.100Z,6.60
2023-01-13T22:33:47.051Z,5.87
2023-01-13T22:36:16.491Z,7.07
2023-01-13T22:38:45.025Z,6.00
2023-01-13T22:41:14.998Z,6.43
2023-01-13T22:43:43.468Z,5.50
2023-01-13T22:46:14.314Z,6.27
2023-01-13T22:48:43.061Z,7.40
2023-01-13T22:51:12.973Z,5.97
2023-01-13T22:53:42.642Z,6.80
2023-01-13T22:56:17.607Z,5.63
2023-01-13T22:58:46.340Z,5.70
2023-01-13T23:01:16.978Z,5.43
2023-01-13T23:03:47.501Z,6.10
2023-01-13T23:06:17.231Z,6.63
2023-01-13T23:08:46.410Z,5.50
2023-01-13T23:11:18.524Z,6.50
2023-01-13T23:13:47.729Z,7.00
2023-01-13T23:16:18.856Z,6.30
2023-01-13T23:18:48.266Z,7.07
2023-01-13T23:21:19.365Z,6.90
2023-01-13T23:23:48.290Z,6.37
2023-01-13T23:26:18.366Z,5.90
2023-01-13T23:28:46.820Z,5.33
2023-01-13T23:31:17.074Z,6.60
2023-01-13T23:33:45.855Z,7.43
2023-01-13T23:36:16.246Z,6.50
2023-01-13T23:38:45.491Z,7.23
2023-01-13T23:41:16.719Z,6.33
2023-01-13T23:43:51.201Z,6.20
2023-01-13T23:46:20.341Z,7.20
2023-01-13T23:48:48.879Z,6.03
2023-01-13T23:51:17.351Z,6.33
2023-01-13T23:53:47.204Z,5.70
2023-01-13T23:56:17.673Z,6.20
2023-01-13T23:58:47.903Z,7.20
